San Francisco, California
Traffic Map
Current Weather Conditions
San Francisco, California
Broken Clouds
Broken Clouds
49°
Feels Like: 43°
Wind Chill: 43° Ceiling: 3000
Heat Index: 49° Visibility: 10mi
Dew Point: 39° Wind: 15mph
Humidity: 69% Direction: 270° (W)
Pressure: 30.21in Gusts: 0mph
Raw Report DataKSFO 220956Z 27013KT 10SM FEW024 BKN030 BKN034 09/04 A3021 RMK AO2 SLP228 T00940039
Traffic Incident Summary
Active as of:
Severity:
Category:
InformationThere was an issue retrieving the traffic information for this location. Please try a different location or try again shortly.
Advertisements